sensor_id;sensor_type;location;lat;lon;timestamp;pressure;altitude;pressure_sealevel;temperature;humidity
10484;BME280;5289;42.610;23.362;2022-08-21T00:00:19;89387.72;;;16.62;100.00
10484;BME280;5289;42.610;23.362;2022-08-21T00:02:47;89387.72;;;16.62;100.00
10484;BME280;5289;42.610;23.362;2022-08-21T00:05:14;89387.72;;;16.62;100.00
10484;BME280;5289;42.610;23.362;2022-08-21T00:07:40;89387.72;;;16.62;100.00
10484;BME280;5289;42.610;23.362;2022-08-21T00:10:08;89387.72;;;16.62;100.00
10484;BME280;5289;42.610;23.362;2022-08-21T00:12:36;89387.72;;;16.62;100.00
10484;BME280;5289;42.610;23.362;2022-08-21T00:15:03;89387.72;;;16.62;100.00
10484;BME280;5289;42.610;23.362;2022-08-21T00:17:30;89387.72;;;16.62;100.00
10484;BME280;5289;42.610;23.362;2022-08-21T00:19:57;89387.72;;;16.62;100.00
10484;BME280;5289;42.610;23.362;2022-08-21T00:22:23;89387.72;;;16.62;100.00
10484;BME280;5289;42.610;23.362;2022-08-21T00:24:50;89387.72;;;16.62;100.00
10484;BME280;5289;42.610;23.362;2022-08-21T00:27:17;89387.72;;;16.62;100.00
10484;BME280;5289;42.610;23.362;2022-08-21T00:29:44;89387.72;;;16.62;100.00
10484;BME280;5289;42.610;23.362;2022-08-21T00:32:11;89387.72;;;16.62;100.00
10484;BME280;5289;42.610;23.362;2022-08-21T00:34:38;89387.72;;;16.62;100.00
10484;BME280;5289;42.610;23.362;2022-08-21T00:37:04;89387.72;;;16.62;100.00
10484;BME280;5289;42.610;23.362;2022-08-21T00:39:31;89387.72;;;16.62;100.00
10484;BME280;5289;42.610;23.362;2022-08-21T00:41:58;89387.72;;;16.62;100.00
10484;BME280;5289;42.610;23.362;2022-08-21T00:44:24;89387.72;;;16.62;100.00
10484;BME280;5289;42.610;23.362;2022-08-21T00:46:52;89387.72;;;16.62;100.00
10484;BME280;5289;42.610;23.362;2022-08-21T00:49:19;89387.72;;;16.62;100.00
10484;BME280;5289;42.610;23.362;2022-08-21T00:51:47;89387.72;;;16.62;100.00
10484;BME280;5289;42.610;23.362;2022-08-21T00:54:15;89387.72;;;16.62;100.00
10484;BME280;5289;42.610;23.362;2022-08-21T00:56:42;89387.72;;;16.62;100.00
10484;BME280;5289;42.610;23.362;2022-08-21T00:59:09;89387.72;;;16.62;100.00
10484;BME280;5289;42.610;23.362;2022-08-21T01:01:36;89387.72;;;16.62;100.00
10484;BME280;5289;42.610;23.362;2022-08-21T01:04:04;89387.72;;;16.62;100.00
10484;BME280;5289;42.610;23.362;2022-08-21T01:06:30;89387.72;;;16.62;100.00
10484;BME280;5289;42.610;23.362;2022-08-21T01:08:57;89387.72;;;16.62;100.00
10484;BME280;5289;42.610;23.362;2022-08-21T01:11:24;89387.72;;;16.62;100.00
10484;BME280;5289;42.610;23.362;2022-08-21T01:13:50;89387.72;;;16.62;100.00
10484;BME280;5289;42.610;23.362;2022-08-21T01:16:18;89387.72;;;16.62;100.00
10484;BME280;5289;42.610;23.362;2022-08-21T01:18:45;89387.72;;;16.62;100.00
10484;BME280;5289;42.610;23.362;2022-08-21T01:21:14;89387.72;;;16.62;100.00
10484;BME280;5289;42.610;23.362;2022-08-21T01:23:42;89387.72;;;16.62;100.00
10484;BME280;5289;42.610;23.362;2022-08-21T01:26:09;89387.72;;;16.62;100.00
10484;BME280;5289;42.610;23.362;2022-08-21T01:28:37;89387.72;;;16.62;100.00
10484;BME280;5289;42.610;23.362;2022-08-21T01:31:05;89387.72;;;16.62;100.00
10484;BME280;5289;42.610;23.362;2022-08-21T01:33:32;89387.72;;;16.62;100.00
10484;BME280;5289;42.610;23.362;2022-08-21T01:35:59;89387.72;;;16.62;100.00
10484;BME280;5289;42.610;23.362;2022-08-21T01:38:27;89387.72;;;16.62;100.00
10484;BME280;5289;42.610;23.362;2022-08-21T01:40:53;89387.72;;;16.62;100.00
10484;BME280;5289;42.610;23.362;2022-08-21T01:43:20;89387.72;;;16.62;100.00
10484;BME280;5289;42.610;23.362;2022-08-21T01:45:46;89387.72;;;16.62;100.00
10484;BME280;5289;42.610;23.362;2022-08-21T01:48:13;89387.72;;;16.62;100.00
10484;BME280;5289;42.610;23.362;2022-08-21T01:50:39;89387.72;;;16.62;100.00
10484;BME280;5289;42.610;23.362;2022-08-21T01:53:06;89387.72;;;16.62;100.00
10484;BME280;5289;42.610;23.362;2022-08-21T01:55:34;89387.72;;;16.62;100.00
10484;BME280;5289;42.610;23.362;2022-08-21T01:58:01;89387.72;;;16.62;100.00
10484;BME280;5289;42.610;23.362;2022-08-21T02:00:27;89387.72;;;16.62;100.00
10484;BME280;5289;42.610;23.362;2022-08-21T02:02:54;89387.72;;;16.62;100.00
10484;BME280;5289;42.610;23.362;2022-08-21T02:05:21;89387.72;;;16.62;100.00
10484;BME280;5289;42.610;23.362;2022-08-21T02:07:48;89387.72;;;16.62;100.00
10484;BME280;5289;42.610;23.362;2022-08-21T02:10:16;89387.72;;;16.62;100.00
10484;BME280;5289;42.610;23.362;2022-08-21T02:12:44;89387.72;;;16.62;100.00
10484;BME280;5289;42.610;23.362;2022-08-21T02:15:10;89387.72;;;16.62;100.00
10484;BME280;5289;42.610;23.362;2022-08-21T02:17:40;89387.72;;;16.62;100.00
10484;BME280;5289;42.610;23.362;2022-08-21T02:20:08;89387.72;;;16.62;100.00
10484;BME280;5289;42.610;23.362;2022-08-21T02:22:35;89387.72;;;16.62;100.00
10484;BME280;5289;42.610;23.362;2022-08-21T02:25:02;89387.72;;;16.62;100.00
10484;BME280;5289;42.610;23.362;2022-08-21T02:27:28;89387.72;;;16.62;100.00
10484;BME280;5289;42.610;23.362;2022-08-21T02:29:57;89387.72;;;16.62;100.00
10484;BME280;5289;42.610;23.362;2022-08-21T02:32:23;89387.72;;;16.62;100.00
10484;BME280;5289;42.610;23.362;2022-08-21T02:34:50;89387.72;;;16.62;100.00
10484;BME280;5289;42.610;23.362;2022-08-21T02:37:17;89387.72;;;16.62;100.00
10484;BME280;5289;42.610;23.362;2022-08-21T02:39:44;89387.72;;;16.62;100.00
10484;BME280;5289;42.610;23.362;2022-08-21T02:42:10;89387.72;;;16.62;100.00
10484;BME280;5289;42.610;23.362;2022-08-21T02:44:37;89387.72;;;16.62;100.00
10484;BME280;5289;42.610;23.362;2022-08-21T02:47:05;89387.72;;;16.62;100.00
10484;BME280;5289;42.610;23.362;2022-08-21T02:49:32;89387.72;;;16.62;100.00
10484;BME280;5289;42.610;23.362;2022-08-21T02:51:58;89387.72;;;16.62;100.00
10484;BME280;5289;42.610;23.362;2022-08-21T02:54:25;89387.72;;;16.62;100.00
10484;BME280;5289;42.610;23.362;2022-08-21T02:56:52;89387.72;;;16.62;100.00
10484;BME280;5289;42.610;23.362;2022-08-21T02:59:18;89387.72;;;16.62;100.00
10484;BME280;5289;42.610;23.362;2022-08-21T03:01:45;89387.72;;;16.62;100.00
10484;BME280;5289;42.610;23.362;2022-08-21T03:04:12;89387.72;;;16.62;100.00
10484;BME280;5289;42.610;23.362;2022-08-21T03:06:39;89387.72;;;16.62;100.00
10484;BME280;5289;42.610;23.362;2022-08-21T03:09:06;89387.72;;;16.62;100.00
10484;BME280;5289;42.610;23.362;2022-08-21T03:11:32;89387.72;;;16.62;100.00
10484;BME280;5289;42.610;23.362;2022-08-21T03:13:59;89387.72;;;16.62;100.00
10484;BME280;5289;42.610;23.362;2022-08-21T03:16:25;89387.72;;;16.62;100.00
10484;BME280;5289;42.610;23.362;2022-08-21T03:18:52;89387.72;;;16.62;100.00
10484;BME280;5289;42.610;23.362;2022-08-21T03:21:20;89387.72;;;16.62;100.00
10484;BME280;5289;42.610;23.362;2022-08-21T03:23:46;89387.72;;;16.62;100.00
10484;BME280;5289;42.610;23.362;2022-08-21T03:26:13;89387.72;;;16.62;100.00
10484;BME280;5289;42.610;23.362;2022-08-21T03:28:39;89387.72;;;16.62;100.00
10484;BME280;5289;42.610;23.362;2022-08-21T03:31:06;79372.19;;;16.62;100.00
10484;BME280;5289;42.610;23.362;2022-08-21T03:33:33;89387.72;;;16.62;100.00
10484;BME280;5289;42.610;23.362;2022-08-21T03:36:01;89387.72;;;16.62;100.00
10484;BME280;5289;42.610;23.362;2022-08-21T03:38:30;89387.72;;;16.62;100.00
10484;BME280;5289;42.610;23.362;2022-08-21T03:40:57;89387.72;;;16.62;100.00
10484;BME280;5289;42.610;23.362;2022-08-21T03:43:24;89387.72;;;16.62;100.00
10484;BME280;5289;42.610;23.362;2022-08-21T03:45:51;89387.72;;;16.62;100.00
10484;BME280;5289;42.610;23.362;2022-08-21T03:48:17;89387.72;;;16.62;100.00
10484;BME280;5289;42.610;23.362;2022-08-21T03:50:44;89387.72;;;16.62;100.00
10484;BME280;5289;42.610;23.362;2022-08-21T03:53:12;89387.72;;;16.62;100.00
10484;BME280;5289;42.610;23.362;2022-08-21T03:55:41;89387.72;;;16.62;100.00
10484;BME280;5289;42.610;23.362;2022-08-21T03:58:07;89387.72;;;16.62;100.00
10484;BME280;5289;42.610;23.362;2022-08-21T04:00:34;89387.72;;;16.62;100.00
10484;BME280;5289;42.610;23.362;2022-08-21T04:03:01;89387.72;;;16.62;100.00
10484;BME280;5289;42.610;23.362;2022-08-21T04:05:27;89387.72;;;16.62;100.00
10484;BME280;5289;42.610;23.362;2022-08-21T04:07:55;59726.34;;;-142.13;100.00
10484;BME280;5289;42.610;23.362;2022-08-21T04:10:23;89387.72;;;16.62;100.00
10484;BME280;5289;42.610;23.362;2022-08-21T04:12:52;89387.72;;;16.62;100.00
10484;BME280;5289;42.610;23.362;2022-08-21T04:15:18;89387.72;;;16.62;100.00
10484;BME280;5289;42.610;23.362;2022-08-21T04:17:45;89387.72;;;16.62;100.00
10484;BME280;5289;42.610;23.362;2022-08-21T04:20:12;89387.72;;;16.62;100.00
10484;BME280;5289;42.610;23.362;2022-08-21T04:22:38;89387.72;;;16.62;100.00
10484;BME280;5289;42.610;23.362;2022-08-21T04:25:05;89387.72;;;16.62;100.00
10484;BME280;5289;42.610;23.362;2022-08-21T04:27:32;89387.72;;;16.62;100.00
10484;BME280;5289;42.610;23.362;2022-08-21T04:30:00;89387.72;;;16.62;100.00
10484;BME280;5289;42.610;23.362;2022-08-21T04:32:27;89387.72;;;16.62;100.00
10484;BME280;5289;42.610;23.362;2022-08-21T04:34:57;89387.72;;;16.62;100.00
10484;BME280;5289;42.610;23.362;2022-08-21T04:37:24;89387.72;;;16.62;100.00
10484;BME280;5289;42.610;23.362;2022-08-21T04:39:50;89387.72;;;16.62;100.00
10484;BME280;5289;42.610;23.362;2022-08-21T04:42:17;89387.72;;;16.62;100.00
10484;BME280;5289;42.610;23.362;2022-08-21T04:44:44;89387.72;;;16.62;100.00
10484;BME280;5289;42.610;23.362;2022-08-21T04:47:12;89387.72;;;16.62;100.00
10484;BME280;5289;42.610;23.362;2022-08-21T04:49:38;89387.72;;;16.62;100.00
10484;BME280;5289;42.610;23.362;2022-08-21T04:54:32;89387.72;;;16.62;100.00
10484;BME280;5289;42.610;23.362;2022-08-21T04:56:59;59726.34;;;-142.13;nan
10484;BME280;5289;42.610;23.362;2022-08-21T04:59:30;59726.34;;;-142.13;100.00
10484;BME280;5289;42.610;23.362;2022-08-21T05:01:57;59726.34;;;-142.13;100.00
10484;BME280;5289;42.610;23.362;2022-08-21T05:04:28;59726.34;;;-142.13;100.00
10484;BME280;5289;42.610;23.362;2022-08-21T05:06:56;59726.34;;;-142.13;100.00
10484;BME280;5289;42.610;23.362;2022-08-21T05:09:24;59726.34;;;-142.13;100.00
10484;BME280;5289;42.610;23.362;2022-08-21T05:11:51;59726.34;;;-142.13;100.00
10484;BME280;5289;42.610;23.362;2022-08-21T05:14:18;59726.34;;;-142.13;100.00
10484;BME280;5289;42.610;23.362;2022-08-21T05:16:44;59726.34;;;-142.13;100.00
10484;BME280;5289;42.610;23.362;2022-08-21T05:19:11;59726.34;;;-142.13;100.00
10484;BME280;5289;42.610;23.362;2022-08-21T05:21:40;59726.34;;;-142.13;100.00
10484;BME280;5289;42.610;23.362;2022-08-21T05:24:07;59726.34;;;-142.13;100.00
10484;BME280;5289;42.610;23.362;2022-08-21T05:26:34;59726.34;;;-142.13;100.00
10484;BME280;5289;42.610;23.362;2022-08-21T05:29:01;59726.34;;;-142.13;100.00
10484;BME280;5289;42.610;23.362;2022-08-21T05:31:28;59726.34;;;-142.13;100.00
10484;BME280;5289;42.610;23.362;2022-08-21T05:33:54;59726.34;;;-142.13;100.00
10484;BME280;5289;42.610;23.362;2022-08-21T05:36:22;59726.34;;;-142.13;100.00
10484;BME280;5289;42.610;23.362;2022-08-21T05:38:50;59726.34;;;-142.13;100.00
10484;BME280;5289;42.610;23.362;2022-08-21T05:41:16;59726.34;;;-142.13;100.00
10484;BME280;5289;42.610;23.362;2022-08-21T05:43:43;114183.75;;;-142.13;100.00
10484;BME280;5289;42.610;23.362;2022-08-21T05:46:09;59726.34;;;-142.13;100.00
10484;BME280;5289;42.610;23.362;2022-08-21T05:48:36;59726.34;;;-142.13;100.00
10484;BME280;5289;42.610;23.362;2022-08-21T05:51:04;59726.34;;;-142.13;100.00
10484;BME280;5289;42.610;23.362;2022-08-21T05:53:31;59726.34;;;-142.13;100.00
10484;BME280;5289;42.610;23.362;2022-08-21T05:55:59;59726.34;;;-142.13;100.00
10484;BME280;5289;42.610;23.362;2022-08-21T05:58:28;59726.34;;;-142.13;100.00
10484;BME280;5289;42.610;23.362;2022-08-21T06:00:55;59726.34;;;-142.13;100.00
10484;BME280;5289;42.610;23.362;2022-08-21T06:03:24;59726.34;;;-142.13;100.00
10484;BME280;5289;42.610;23.362;2022-08-21T06:05:51;59726.34;;;-142.13;100.00
10484;BME280;5289;42.610;23.362;2022-08-21T06:08:17;59726.34;;;-142.13;100.00
10484;BME280;5289;42.610;23.362;2022-08-21T06:10:44;59726.34;;;-142.13;100.00
10484;BME280;5289;42.610;23.362;2022-08-21T06:13:13;59726.34;;;-142.13;100.00
10484;BME280;5289;42.610;23.362;2022-08-21T06:15:39;59726.34;;;-142.13;100.00
10484;BME280;5289;42.610;23.362;2022-08-21T06:18:06;59726.34;;;-142.13;100.00
10484;BME280;5289;42.610;23.362;2022-08-21T06:20:33;67347.88;;;-142.13;100.00
10484;BME280;5289;42.610;23.362;2022-08-21T06:22:59;59726.34;;;-142.13;nan
10484;BME280;5289;42.610;23.362;2022-08-21T06:25:26;89387.72;;;16.62;100.00
10484;BME280;5289;42.610;23.362;2022-08-21T06:27:53;89387.72;;;16.62;100.00
10484;BME280;5289;42.610;23.362;2022-08-21T06:30:21;89387.72;;;16.62;100.00
10484;BME280;5289;42.610;23.362;2022-08-21T06:32:47;90404.63;;;23.76;100.00
10484;BME280;5289;42.610;23.362;2022-08-21T06:35:14;90404.63;;;23.76;100.00
10484;BME280;5289;42.610;23.362;2022-08-21T06:37:40;90404.63;;;23.76;100.00
10484;BME280;5289;42.610;23.362;2022-08-21T06:40:07;90404.63;;;23.76;100.00
10484;BME280;5289;42.610;23.362;2022-08-21T06:42:34;90404.63;;;23.76;100.00
10484;BME280;5289;42.610;23.362;2022-08-21T06:45:01;90404.63;;;23.76;100.00
10484;BME280;5289;42.610;23.362;2022-08-21T06:47:28;90404.63;;;23.76;100.00
10484;BME280;5289;42.610;23.362;2022-08-21T06:49:55;90551.72;;;-126.42;100.00
10484;BME280;5289;42.610;23.362;2022-08-21T06:52:21;90642.22;;;23.49;100.00
10484;BME280;5289;42.610;23.362;2022-08-21T06:54:48;90642.22;;;23.49;100.00
10484;BME280;5289;42.610;23.362;2022-08-21T06:57:15;90642.22;;;-142.13;100.00
10484;BME280;5289;42.610;23.362;2022-08-21T06:59:41;90642.22;;;23.49;100.00
10484;BME280;5289;42.610;23.362;2022-08-21T07:02:08;90642.22;;;23.49;100.00
10484;BME280;5289;42.610;23.362;2022-08-21T07:04:35;90505.41;;;24.52;100.00
10484;BME280;5289;42.610;23.362;2022-08-21T07:07:02;90505.41;;;24.52;100.00
10484;BME280;5289;42.610;23.362;2022-08-21T07:09:28;90505.41;;;24.52;100.00
10484;BME280;5289;42.610;23.362;2022-08-21T07:11:55;90595.38;;;24.90;100.00
10484;BME280;5289;42.610;23.362;2022-08-21T07:14:22;90633.00;;;25.21;100.00
10484;BME280;5289;42.610;23.362;2022-08-21T07:16:49;90633.00;;;25.21;100.00
10484;BME280;5289;42.610;23.362;2022-08-21T07:19:16;90633.00;;;25.21;100.00
10484;BME280;5289;42.610;23.362;2022-08-21T07:21:44;90633.00;;;25.21;100.00
10484;BME280;5289;42.610;23.362;2022-08-21T07:24:10;90633.00;;;25.21;100.00
10484;BME280;5289;42.610;23.362;2022-08-21T07:26:37;90633.00;;;25.21;100.00
10484;BME280;5289;42.610;23.362;2022-08-21T07:29:04;90633.00;;;25.21;100.00
10484;BME280;5289;42.610;23.362;2022-08-21T07:31:30;90633.00;;;25.21;100.00
10484;BME280;5289;42.610;23.362;2022-08-21T07:33:57;90633.00;;;25.21;100.00
10484;BME280;5289;42.610;23.362;2022-08-21T07:36:24;91749.94;;;32.23;100.00
10484;BME280;5289;42.610;23.362;2022-08-21T07:38:51;91749.94;;;32.23;100.00
10484;BME280;5289;42.610;23.362;2022-08-21T07:41:20;91982.66;;;34.34;100.00
10484;BME280;5289;42.610;23.362;2022-08-21T07:43:47;92468.00;;;37.66;100.00
10484;BME280;5289;42.610;23.362;2022-08-21T07:46:13;92463.88;;;38.08;100.00
10484;BME280;5289;42.610;23.362;2022-08-21T07:48:40;92517.53;;;37.33;100.00
10484;BME280;5289;42.610;23.362;2022-08-21T07:51:07;92477.75;;;37.05;100.00
10484;BME280;5289;42.610;23.362;2022-08-21T07:54:34;59726.34;;;-142.13;100.00
10484;BME280;5289;42.610;23.362;2022-08-21T07:57:59;59726.34;;;-142.13;100.00
10484;BME280;5289;42.610;23.362;2022-08-21T08:01:24;59726.34;;;-142.13;100.00
10484;BME280;5289;42.610;23.362;2022-08-21T08:04:50;59726.34;;;-142.13;100.00
10484;BME280;5289;42.610;23.362;2022-08-21T08:08:15;59726.34;;;-142.13;100.00
10484;BME280;5289;42.610;23.362;2022-08-21T08:11:42;59726.34;;;-142.13;100.00
10484;BME280;5289;42.610;23.362;2022-08-21T08:15:10;59726.34;;;-142.13;100.00
10484;BME280;5289;42.610;23.362;2022-08-21T08:18:35;59726.34;;;-142.13;100.00
10484;BME280;5289;42.610;23.362;2022-08-21T08:22:00;59726.34;;;-142.13;100.00
10484;BME280;5289;42.610;23.362;2022-08-21T08:25:26;59726.34;;;-142.13;100.00
10484;BME280;5289;42.610;23.362;2022-08-21T08:28:52;59726.34;;;-142.13;100.00
10484;BME280;5289;42.610;23.362;2022-08-21T08:32:17;59726.34;;;-142.13;100.00
10484;BME280;5289;42.610;23.362;2022-08-21T08:35:18;59726.34;;;-142.13;100.00
10484;BME280;5289;42.610;23.362;2022-08-21T08:38:00;59726.34;;;-142.13;100.00
10484;BME280;5289;42.610;23.362;2022-08-21T08:40:29;59726.34;;;-142.13;100.00
10484;BME280;5289;42.610;23.362;2022-08-21T08:43:10;59726.34;;;-142.13;100.00
10484;BME280;5289;42.610;23.362;2022-08-21T08:45:39;59726.34;;;-142.13;100.00
10484;BME280;5289;42.610;23.362;2022-08-21T08:48:08;59726.34;;;-142.13;100.00
10484;BME280;5289;42.610;23.362;2022-08-21T08:50:39;59726.34;;;-142.13;100.00
10484;BME280;5289;42.610;23.362;2022-08-21T08:54:07;59726.34;;;-142.13;100.00
10484;BME280;5289;42.610;23.362;2022-08-21T08:57:31;59726.34;;;-142.13;100.00
10484;BME280;5289;42.610;23.362;2022-08-21T09:00:45;67299.47;;;-142.13;100.00
10484;BME280;5289;42.610;23.362;2022-08-21T09:03:12;90910.41;;;26.42;100.00
10484;BME280;5289;42.610;23.362;2022-08-21T09:05:40;90937.75;;;26.59;100.00
10484;BME280;5289;42.610;23.362;2022-08-21T09:08:15;91058.97;;;26.87;100.00
10484;BME280;5289;42.610;23.362;2022-08-21T09:10:48;91060.69;;;27.46;100.00
10484;BME280;5289;42.610;23.362;2022-08-21T09:13:19;59726.34;;;27.44;100.00
10484;BME280;5289;42.610;23.362;2022-08-21T09:15:52;91502.75;;;27.52;100.00
10484;BME280;5289;42.610;23.362;2022-08-21T09:18:24;91619.19;;;27.02;100.00
10484;BME280;5289;42.610;23.362;2022-08-21T09:20:57;91616.78;;;27.37;100.00
10484;BME280;5289;42.610;23.362;2022-08-21T09:23:29;91630.72;;;28.43;100.00
10484;BME280;5289;42.610;23.362;2022-08-21T09:26:00;91738.81;;;27.79;100.00
10484;BME280;5289;42.610;23.362;2022-08-21T09:28:30;59726.34;;;-142.13;100.00
10484;BME280;5289;42.610;23.362;2022-08-21T09:30:59;91782.72;;;28.13;100.00
10484;BME280;5289;42.610;23.362;2022-08-21T09:33:28;91832.94;;;28.26;100.00
10484;BME280;5289;42.610;23.362;2022-08-21T09:35:55;91633.16;;;28.92;100.00
10484;BME280;5289;42.610;23.362;2022-08-21T09:38:24;91776.63;;;28.16;100.00
10484;BME280;5289;42.610;23.362;2022-08-21T09:40:55;91645.56;;;28.65;100.00
10484;BME280;5289;42.610;23.362;2022-08-21T09:43:23;91683.38;;;28.22;100.00
10484;BME280;5289;42.610;23.362;2022-08-21T09:46:03;91718.44;;;27.21;100.00
10484;BME280;5289;42.610;23.362;2022-08-21T09:48:29;91484.53;;;26.85;100.00
10484;BME280;5289;42.610;23.362;2022-08-21T09:51:07;91505.97;;;26.33;100.00
10484;BME280;5289;42.610;23.362;2022-08-21T09:53:37;91435.47;;;25.41;100.00
10484;BME280;5289;42.610;23.362;2022-08-21T09:56:16;91287.69;;;24.58;100.00
10484;BME280;5289;42.610;23.362;2022-08-21T09:59:12;91287.69;;;24.58;100.00
10484;BME280;5289;42.610;23.362;2022-08-21T10:02:34;59726.34;;;-142.13;100.00
10484;BME280;5289;42.610;23.362;2022-08-21T10:05:02;90979.00;;;23.96;100.00
10484;BME280;5289;42.610;23.362;2022-08-21T10:07:29;90900.81;;;23.61;100.00
10484;BME280;5289;42.610;23.362;2022-08-21T10:10:03;90674.97;;;23.83;100.00
10484;BME280;5289;42.610;23.362;2022-08-21T10:12:32;90594.97;;;24.01;100.00
10484;BME280;5289;42.610;23.362;2022-08-21T10:15:06;90667.00;;;23.99;100.00
10484;BME280;5289;42.610;23.362;2022-08-21T10:17:40;90712.44;;;23.91;100.00
10484;BME280;5289;42.610;23.362;2022-08-21T10:20:10;90727.03;;;24.18;100.00
10484;BME280;5289;42.610;23.362;2022-08-21T10:22:39;90874.47;;;24.75;100.00
10484;BME280;5289;42.610;23.362;2022-08-21T10:25:09;91009.56;;;25.25;100.00
10484;BME280;5289;42.610;23.362;2022-08-21T10:27:44;91157.59;;;25.65;100.00
10484;BME280;5289;42.610;23.362;2022-08-21T10:30:14;91160.94;;;25.74;100.00
10484;BME280;5289;42.610;23.362;2022-08-21T10:32:52;91147.69;;;25.81;100.00
10484;BME280;5289;42.610;23.362;2022-08-21T10:35:24;91196.50;;;26.07;100.00
10484;BME280;5289;42.610;23.362;2022-08-21T10:37:59;91166.59;;;26.36;100.00
10484;BME280;5289;42.610;23.362;2022-08-21T10:40:29;91301.31;;;26.36;100.00
10484;BME280;5289;42.610;23.362;2022-08-21T10:43:01;91309.69;;;26.59;100.00
10484;BME280;5289;42.610;23.362;2022-08-21T10:48:16;91330.50;;;25.86;100.00
10484;BME280;5289;42.610;23.362;2022-08-21T10:50:48;91366.44;;;26.38;100.00
10484;BME280;5289;42.610;23.362;2022-08-21T10:53:20;91391.28;;;26.72;100.00
10484;BME280;5289;42.610;23.362;2022-08-21T10:55:50;91440.81;;;26.07;100.00
10484;BME280;5289;42.610;23.362;2022-08-21T10:58:20;91453.94;;;26.08;100.00
10484;BME280;5289;42.610;23.362;2022-08-21T11:00:48;91326.00;;;26.02;100.00
10484;BME280;5289;42.610;23.362;2022-08-21T11:03:17;91305.88;;;25.27;100.00
10484;BME280;5289;42.610;23.362;2022-08-21T11:05:48;91302.81;;;24.83;100.00
10484;BME280;5289;42.610;23.362;2022-08-21T11:08:17;91329.16;;;24.90;100.00
10484;BME280;5289;42.610;23.362;2022-08-21T11:11:46;59726.34;;;-142.13;100.00
10484;BME280;5289;42.610;23.362;2022-08-21T11:14:39;91329.16;;;24.90;100.00
10484;BME280;5289;42.610;23.362;2022-08-21T11:17:08;91442.13;;;24.81;100.00
10484;BME280;5289;42.610;23.362;2022-08-21T11:19:38;91353.69;;;24.67;100.00
10484;BME280;5289;42.610;23.362;2022-08-21T11:22:08;91328.00;;;24.37;100.00
10484;BME280;5289;42.610;23.362;2022-08-21T11:24:38;91330.09;;;24.31;100.00
10484;BME280;5289;42.610;23.362;2022-08-21T11:27:15;91316.72;;;24.23;100.00
10484;BME280;5289;42.610;23.362;2022-08-21T11:29:46;91195.47;;;24.99;100.00
10484;BME280;5289;42.610;23.362;2022-08-21T11:32:32;91245.06;;;25.59;100.00
10484;BME280;5289;42.610;23.362;2022-08-21T11:35:09;91384.47;;;25.44;100.00
10484;BME280;5289;42.610;23.362;2022-08-21T11:37:42;91273.88;;;25.70;100.00
10484;BME280;5289;42.610;23.362;2022-08-21T11:40:14;91280.72;;;25.55;100.00
10484;BME280;5289;42.610;23.362;2022-08-21T11:42:46;91435.97;;;25.55;100.00
10484;BME280;5289;42.610;23.362;2022-08-21T11:45:18;91403.84;;;25.59;100.00
10484;BME280;5289;42.610;23.362;2022-08-21T11:47:50;91336.78;;;25.66;100.00
10484;BME280;5289;42.610;23.362;2022-08-21T11:50:20;91401.72;;;25.76;100.00
10484;BME280;5289;42.610;23.362;2022-08-21T11:52:50;91480.03;;;25.83;100.00
10484;BME280;5289;42.610;23.362;2022-08-21T11:55:21;91448.03;;;25.70;100.00
10484;BME280;5289;42.610;23.362;2022-08-21T11:57:53;91157.72;;;25.56;100.00
10484;BME280;5289;42.610;23.362;2022-08-21T12:00:22;90941.09;;;25.50;100.00
10484;BME280;5289;42.610;23.362;2022-08-21T12:02:52;91041.53;;;25.26;100.00
10484;BME280;5289;42.610;23.362;2022-08-21T12:05:25;90928.34;;;25.19;100.00
10484;BME280;5289;42.610;23.362;2022-08-21T12:08:56;59726.34;;;-142.13;100.00
10484;BME280;5289;42.610;23.362;2022-08-21T12:12:23;59726.34;;;-142.13;100.00
10484;BME280;5289;42.610;23.362;2022-08-21T12:14:51;91265.28;;;24.87;100.00
10484;BME280;5289;42.610;23.362;2022-08-21T12:18:06;59726.34;;;-142.13;100.00
10484;BME280;5289;42.610;23.362;2022-08-21T12:20:36;90554.53;;;25.15;100.00
10484;BME280;5289;42.610;23.362;2022-08-21T12:23:04;90511.41;;;25.12;100.00
10484;BME280;5289;42.610;23.362;2022-08-21T12:25:36;90459.50;;;25.08;100.00
10484;BME280;5289;42.610;23.362;2022-08-21T12:28:06;90434.00;;;25.02;100.00
10484;BME280;5289;42.610;23.362;2022-08-21T12:30:34;90406.84;;;24.88;100.00
10484;BME280;5289;42.610;23.362;2022-08-21T12:33:02;90347.13;;;24.79;100.00
10484;BME280;5289;42.610;23.362;2022-08-21T12:35:31;90371.72;;;24.61;100.00
10484;BME280;5289;42.610;23.362;2022-08-21T12:38:01;90324.06;;;24.58;100.00
10484;BME280;5289;42.610;23.362;2022-08-21T12:40:31;90305.03;;;24.48;100.00
10484;BME280;5289;42.610;23.362;2022-08-21T12:42:58;90258.19;;;24.45;100.00
10484;BME280;5289;42.610;23.362;2022-08-21T12:45:28;90242.78;;;24.42;100.00
10484;BME280;5289;42.610;23.362;2022-08-21T12:47:56;90228.84;;;24.37;100.00
10484;BME280;5289;42.610;23.362;2022-08-21T12:50:26;90193.03;;;24.29;100.00
10484;BME280;5289;42.610;23.362;2022-08-21T12:53:19;59726.34;;;-142.13;100.00
10484;BME280;5289;42.610;23.362;2022-08-21T12:55:52;90193.03;;;24.29;100.00
10484;BME280;5289;42.610;23.362;2022-08-21T12:58:24;90105.16;;;24.07;100.00
10484;BME280;5289;42.610;23.362;2022-08-21T13:00:52;90064.41;;;24.01;100.00
10484;BME280;5289;42.610;23.362;2022-08-21T13:03:19;89995.00;;;24.00;100.00
10484;BME280;5289;42.610;23.362;2022-08-21T13:05:47;90002.19;;;23.96;100.00
10484;BME280;5289;42.610;23.362;2022-08-21T13:08:18;89974.19;;;23.93;100.00
10484;BME280;5289;42.610;23.362;2022-08-21T13:10:46;90038.78;;;23.84;100.00
10484;BME280;5289;42.610;23.362;2022-08-21T13:13:21;90074.44;;;23.85;100.00
10484;BME280;5289;42.610;23.362;2022-08-21T13:15:48;90078.69;;;23.86;100.00